createdAt,value
2024-01-15T00:02:18.775Z,2.30
2024-01-15T00:04:46.578Z,3.67
2024-01-15T00:07:14.563Z,5.30
2024-01-15T00:09:42.385Z,2.73
2024-01-15T00:12:10.265Z,5.27
2024-01-15T00:14:38.063Z,5.33
2024-01-15T00:17:05.869Z,2.53
2024-01-15T00:19:33.797Z,8.97
2024-01-15T00:22:01.691Z,9.10
2024-01-15T00:24:29.493Z,6.97
2024-01-15T00:26:57.349Z,27.33
2024-01-15T00:29:25.064Z,3.77
2024-01-15T00:31:52.888Z,6.07
2024-01-15T00:34:20.831Z,3.33
2024-01-15T00:36:48.704Z,2.80
2024-01-15T00:39:18.007Z,6.27
2024-01-15T00:41:45.830Z,3.33
2024-01-15T00:44:13.617Z,6.00
2024-01-15T00:46:47.216Z,6.83
2024-01-15T00:49:15.547Z,12.53
2024-01-15T00:51:43.520Z,7.33
2024-01-15T00:54:11.419Z,3.77
2024-01-15T00:56:39.169Z,4.20
2024-01-15T00:59:07.224Z,5.47
2024-01-15T01:01:35.233Z,7.57
2024-01-15T01:04:03.159Z,3.97
2024-01-15T01:06:34.100Z,2.77
2024-01-15T01:09:02.353Z,2.83
2024-01-15T01:11:30.282Z,3.40
2024-01-15T01:13:58.322Z,3.27
2024-01-15T01:16:26.038Z,2.60
2024-01-15T01:18:53.996Z,5.00
2024-01-15T01:21:21.951Z,6.60
2024-01-15T01:23:49.726Z,2.57
2024-01-15T01:26:18.432Z,3.00
2024-01-15T01:28:46.346Z,3.10
2024-01-15T01:31:14.278Z,7.47
2024-01-15T01:33:42.274Z,2.77
2024-01-15T01:36:13.290Z,3.80
2024-01-15T01:38:41.348Z,3.20
2024-01-15T01:41:09.092Z,4.37
2024-01-15T01:43:36.842Z,2.70
2024-01-15T01:46:04.698Z,3.33
2024-01-15T01:48:32.682Z,3.80
2024-01-15T01:51:01.355Z,4.50
2024-01-15T01:53:29.116Z,3.20
2024-01-15T01:55:57.267Z,3.30
2024-01-15T01:58:26.665Z,2.77
2024-01-15T02:00:54.821Z,5.30
2024-01-15T02:03:22.751Z,4.23
2024-01-15T02:05:51.009Z,1.87
2024-01-15T02:08:18.864Z,2.17
2024-01-15T02:10:46.612Z,4.93
2024-01-15T02:13:14.539Z,7.30
2024-01-15T02:15:42.454Z,4.87
2024-01-15T02:18:10.449Z,13.27
2024-01-15T02:20:38.320Z,7.33
2024-01-15T02:23:13.496Z,5.27
2024-01-15T02:25:46.340Z,3.53
2024-01-15T02:28:15.713Z,2.13
2024-01-15T02:30:44.057Z,2.67
2024-01-15T02:33:13.334Z,2.83
2024-01-15T02:35:41.678Z,3.13
2024-01-15T02:38:09.578Z,3.90
2024-01-15T02:40:37.408Z,6.80
2024-01-15T02:43:05.461Z,4.13
2024-01-15T02:45:34.372Z,2.23
2024-01-15T02:48:02.358Z,5.97
2024-01-15T02:50:30.713Z,2.00
2024-01-15T02:52:58.568Z,2.87
2024-01-15T02:55:26.418Z,2.63
2024-01-15T02:57:54.222Z,3.67
2024-01-15T03:00:22.026Z,2.27
2024-01-15T03:02:51.193Z,3.70
2024-01-15T03:05:21.300Z,1.83
2024-01-15T03:07:51.912Z,2.77
2024-01-15T03:10:23.784Z,3.17
2024-01-15T03:12:54.902Z,1.63
2024-01-15T03:15:24.038Z,7.90
2024-01-15T03:17:51.866Z,4.70
2024-01-15T03:20:19.615Z,3.83
2024-01-15T03:22:47.479Z,7.53
2024-01-15T03:25:15.243Z,5.23
2024-01-15T03:27:43.136Z,3.30
2024-01-15T03:30:11.546Z,5.20
2024-01-15T03:32:39.514Z,4.20
2024-01-15T03:35:07.881Z,2.60
2024-01-15T03:37:36.776Z,5.13
2024-01-15T03:40:05.866Z,1.97
2024-01-15T03:42:33.960Z,7.27
2024-01-15T03:45:01.720Z,2.97
2024-01-15T03:47:29.606Z,2.77
2024-01-15T03:49:57.428Z,3.00
2024-01-15T03:52:25.282Z,10.23
2024-01-15T03:54:53.167Z,5.67
2024-01-15T03:57:20.928Z,7.43
2024-01-15T03:59:48.736Z,6.97
2024-01-15T04:02:18.499Z,7.13
2024-01-15T04:04:46.571Z,7.23
2024-01-15T04:07:14.554Z,3.70
2024-01-15T04:09:42.414Z,8.20
2024-01-15T04:12:10.280Z,6.43
2024-01-15T04:14:38.079Z,5.73
2024-01-15T04:17:05.969Z,6.73
2024-01-15T04:19:33.915Z,6.90
2024-01-15T04:22:01.769Z,3.27
2024-01-15T04:24:29.586Z,3.43
2024-01-15T04:26:57.322Z,5.13
2024-01-15T04:29:25.103Z,4.17
2024-01-15T04:31:53.945Z,3.40
2024-01-15T04:34:21.822Z,2.37
2024-01-15T04:36:49.873Z,4.17
2024-01-15T04:39:17.746Z,2.60
2024-01-15T04:41:45.500Z,1.83
2024-01-15T04:44:13.333Z,4.43
2024-01-15T04:46:41.188Z,7.80
2024-01-15T04:49:09.198Z,4.37
2024-01-15T04:51:37.032Z,5.23
2024-01-15T04:54:05.335Z,48.70
2024-01-15T04:56:33.029Z,6.70
2024-01-15T04:59:00.847Z,6.77
2024-01-15T05:01:32.699Z,7.47
2024-01-15T05:04:00.843Z,5.13
2024-01-15T05:06:28.882Z,3.37
2024-01-15T05:08:56.702Z,3.40
2024-01-15T05:11:24.418Z,6.03
2024-01-15T05:13:52.223Z,2.40
2024-01-15T05:16:20.017Z,8.03
2024-01-15T05:18:47.983Z,14.70
2024-01-15T05:21:15.826Z,7.03
2024-01-15T05:23:43.616Z,5.13
2024-01-15T05:26:11.468Z,4.67
2024-01-15T05:28:39.255Z,6.27
2024-01-15T05:31:07.333Z,4.17
2024-01-15T05:33:35.266Z,6.53
2024-01-15T05:36:03.758Z,3.53
2024-01-15T05:38:31.621Z,3.33
2024-01-15T05:40:59.360Z,2.60
2024-01-15T05:43:27.113Z,10.20
2024-01-15T05:45:54.870Z,6.63
2024-01-15T05:48:22.880Z,18.53
2024-01-15T05:50:50.694Z,14.43
2024-01-15T05:53:18.473Z,13.03
2024-01-15T05:55:46.265Z,6.17
2024-01-15T05:58:14.080Z,4.13
2024-01-15T06:00:41.932Z,8.27
2024-01-15T06:03:09.811Z,4.53
2024-01-15T06:05:37.659Z,4.53
2024-01-15T06:08:05.572Z,7.33
2024-01-15T06:10:33.309Z,11.47
2024-01-15T06:13:01.047Z,11.20
2024-01-15T06:15:28.865Z,5.30
2024-01-15T06:17:56.722Z,5.87
2024-01-15T06:20:24.484Z,3.50
2024-01-15T06:22:52.264Z,7.17
2024-01-15T06:25:20.107Z,8.83
2024-01-15T06:27:47.974Z,5.73
2024-01-15T06:30:16.101Z,5.13
2024-01-15T06:32:44.051Z,5.97
2024-01-15T06:35:12.915Z,5.10
2024-01-15T06:37:40.795Z,9.53
2024-01-15T06:40:09.291Z,11.87
2024-01-15T06:42:37.142Z,11.40
2024-01-15T06:45:05.579Z,27.10
2024-01-15T06:47:33.846Z,19.30
2024-01-15T06:50:01.744Z,18.77
2024-01-15T06:52:29.669Z,24.00
2024-01-15T06:54:57.518Z,19.77
2024-01-15T06:57:25.361Z,12.83
2024-01-15T06:59:53.169Z,12.03
2024-01-15T07:02:20.943Z,10.77
2024-01-15T07:04:49.011Z,12.07
2024-01-15T07:07:16.765Z,10.53
2024-01-15T07:09:44.559Z,8.73
2024-01-15T07:12:12.368Z,11.97
2024-01-15T07:14:40.188Z,10.67
2024-01-15T07:17:07.904Z,30.67
2024-01-15T07:19:35.770Z,28.50
2024-01-15T07:22:03.993Z,25.20
2024-01-15T07:24:31.936Z,23.20
2024-01-15T07:26:59.692Z,18.37
2024-01-15T07:29:27.885Z,17.70
2024-01-15T07:31:56.080Z,10.73
2024-01-15T07:34:24.172Z,10.70
2024-01-15T07:36:52.051Z,12.80
2024-01-15T07:39:19.993Z,14.57
2024-01-15T07:41:47.855Z,22.80
2024-01-15T07:44:16.107Z,30.50
2024-01-15T07:46:50.174Z,18.00
2024-01-15T07:49:18.153Z,9.30
2024-01-15T07:51:46.069Z,12.97
2024-01-15T07:54:14.036Z,9.13
2024-01-15T07:57:05.904Z,7.60
2024-01-15T07:59:36.269Z,11.67
2024-01-15T08:02:04.652Z,8.20
2024-01-15T08:04:32.754Z,7.40
2024-01-15T08:07:02.097Z,11.37
2024-01-15T08:09:30.835Z,22.17
2024-01-15T08:11:58.685Z,32.03
2024-01-15T08:14:26.594Z,13.67
2024-01-15T08:16:54.306Z,11.60
2024-01-15T08:19:22.518Z,8.73
2024-01-15T08:21:50.725Z,12.23
2024-01-15T08:24:18.856Z,16.57
2024-01-15T08:26:46.689Z,17.73
2024-01-15T08:29:14.567Z,17.73
2024-01-15T08:31:42.549Z,12.33
2024-01-15T08:34:10.633Z,7.37
2024-01-15T08:36:38.531Z,14.50
2024-01-15T08:39:06.418Z,18.53
2024-01-15T08:41:34.441Z,10.87
2024-01-15T08:44:02.929Z,7.57
2024-01-15T08:46:30.687Z,10.07
2024-01-15T08:48:58.794Z,24.33
2024-01-15T08:51:26.702Z,27.60
2024-01-15T08:53:54.570Z,10.57
2024-01-15T08:56:22.322Z,7.00
2024-01-15T08:58:50.101Z,10.70
2024-01-15T09:01:17.944Z,6.93
2024-01-15T09:03:45.883Z,9.87
2024-01-15T09:06:13.818Z,13.87
2024-01-15T09:08:41.973Z,11.33
2024-01-15T09:11:09.729Z,11.53
2024-01-15T09:13:37.619Z,21.27
2024-01-15T09:16:05.637Z,16.50
2024-01-15T09:18:33.780Z,14.77
2024-01-15T09:21:01.612Z,9.10
2024-01-15T09:23:30.024Z,74.13
2024-01-15T09:25:57.933Z,16.83
2024-01-15T09:28:25.719Z,43.77
2024-01-15T09:30:53.741Z,17.67
2024-01-15T09:33:21.689Z,9.03
2024-01-15T09:35:49.498Z,9.90
2024-01-15T09:38:19.548Z,6.93
2024-01-15T09:40:47.365Z,14.23
2024-01-15T09:43:15.307Z,96.57
2024-01-15T09:45:43.963Z,12.03
2024-01-15T09:48:12.180Z,4.17
2024-01-15T09:50:39.940Z,11.57
2024-01-15T09:53:07.751Z,17.47
2024-01-15T09:55:35.826Z,5.17
2024-01-15T09:58:03.626Z,12.77
2024-01-15T10:00:34.277Z,10.00
2024-01-15T10:03:02.119Z,11.33
2024-01-15T10:05:30.030Z,125.10
2024-01-15T10:07:57.991Z,21.83
2024-01-15T10:10:25.754Z,46.70
2024-01-15T10:12:53.607Z,27.10
2024-01-15T10:15:24.749Z,6.93
2024-01-15T10:17:52.744Z,19.13
2024-01-15T10:20:20.610Z,29.53
2024-01-15T10:22:48.456Z,33.10
2024-01-15T10:25:16.265Z,18.30
2024-01-15T10:27:44.210Z,141.37
2024-01-15T10:30:13.168Z,73.40
2024-01-15T10:32:42.410Z,54.33
2024-01-15T10:35:10.287Z,149.60
2024-01-15T10:37:38.069Z,209.00
2024-01-15T10:40:06.547Z,97.93
2024-01-15T10:42:34.373Z,56.67
2024-01-15T10:45:02.298Z,99.53
2024-01-15T10:47:30.832Z,139.23
2024-01-15T10:49:58.826Z,59.80
2024-01-15T10:52:26.803Z,156.23
2024-01-15T10:54:54.625Z,23.17
2024-01-15T10:57:23.449Z,104.37
2024-01-15T10:59:51.268Z,64.23
2024-01-15T11:02:19.109Z,90.33
2024-01-15T11:04:46.999Z,131.63
2024-01-15T11:07:15.030Z,61.07
2024-01-15T11:09:42.918Z,57.10
2024-01-15T11:12:12.310Z,13.87
2024-01-15T11:14:46.599Z,15.10
2024-01-15T11:17:14.850Z,5.73
2024-01-15T11:19:42.776Z,3.80
2024-01-15T11:22:11.198Z,5.83
2024-01-15T11:24:40.415Z,2.97
2024-01-15T11:27:08.932Z,3.37
2024-01-15T11:29:37.918Z,3.73
2024-01-15T11:32:11.885Z,4.73
2024-01-15T11:35:05.008Z,4.17
2024-01-15T11:37:58.424Z,6.90
2024-01-15T11:40:35.439Z,4.80
2024-01-15T11:43:03.787Z,2.67
2024-01-15T11:45:32.179Z,3.83
2024-01-15T11:48:17.483Z,2.40
2024-01-15T11:50:51.159Z,4.37
2024-01-15T11:53:38.221Z,5.27
2024-01-15T11:56:09.383Z,2.57
2024-01-15T11:58:40.323Z,2.80
2024-01-15T12:01:08.189Z,3.67
2024-01-15T12:03:36.151Z,3.23
2024-01-15T12:06:07.320Z,2.73
2024-01-15T12:08:35.894Z,2.63
2024-01-15T12:11:12.155Z,5.70
2024-01-15T12:13:39.942Z,3.53
2024-01-15T12:16:07.941Z,12.80
2024-01-15T12:18:35.933Z,17.03
2024-01-15T12:21:08.321Z,7.13
2024-01-15T12:23:36.200Z,2.30
2024-01-15T12:26:04.138Z,3.77
2024-01-15T12:28:31.906Z,6.97
2024-01-15T12:31:01.606Z,5.17
2024-01-15T12:33:29.982Z,2.37
2024-01-15T12:35:57.825Z,3.33
2024-01-15T12:38:25.645Z,4.50
2024-01-15T12:40:53.385Z,36.50
2024-01-15T12:43:21.195Z,37.03
2024-01-15T12:45:49.056Z,19.93
2024-01-15T12:48:19.236Z,14.60
2024-01-15T12:50:48.580Z,5.13
2024-01-15T12:53:16.857Z,5.43
2024-01-15T12:55:44.617Z,5.90
2024-01-15T12:58:12.489Z,5.03
2024-01-15T13:00:40.289Z,4.63
2024-01-15T13:03:08.223Z,3.20
2024-01-15T13:05:37.812Z,2.70
2024-01-15T13:08:06.207Z,1.77
2024-01-15T13:10:33.990Z,3.53
2024-01-15T13:13:01.824Z,4.47
2024-01-15T13:15:29.767Z,4.37
2024-01-15T13:17:57.630Z,3.17
2024-01-15T13:20:25.512Z,3.20
2024-01-15T13:22:53.403Z,3.03
2024-01-15T13:25:21.756Z,3.80
2024-01-15T13:27:50.728Z,4.47
2024-01-15T13:30:18.672Z,6.30
2024-01-15T13:32:46.632Z,6.03
2024-01-15T13:35:14.875Z,5.23
2024-01-15T13:37:42.913Z,2.60
2024-01-15T13:40:17.386Z,4.00
2024-01-15T13:42:46.883Z,5.97
2024-01-15T13:45:15.791Z,3.70
2024-01-15T13:47:45.072Z,7.27
2024-01-15T13:50:13.186Z,5.70
2024-01-15T13:52:41.004Z,3.23
2024-01-15T13:55:10.486Z,8.40
2024-01-15T13:57:38.906Z,9.37
2024-01-15T14:00:12.456Z,23.40
2024-01-15T14:02:40.614Z,6.43
2024-01-15T14:05:08.608Z,2.90
2024-01-15T14:07:36.466Z,4.30
2024-01-15T14:10:05.121Z,6.93
2024-01-15T14:12:34.232Z,12.23
2024-01-15T14:15:06.649Z,15.43
2024-01-15T14:17:34.656Z,13.83
2024-01-15T14:20:02.670Z,16.00
2024-01-15T14:22:30.498Z,11.60
2024-01-15T14:24:58.408Z,12.57
2024-01-15T14:27:26.334Z,12.43
2024-01-15T14:29:54.113Z,18.57
2024-01-15T14:32:21.981Z,9.67
2024-01-15T14:34:50.617Z,9.37
2024-01-15T14:37:18.547Z,14.77
2024-01-15T14:39:46.326Z,24.23
2024-01-15T14:42:14.128Z,14.20
2024-01-15T14:44:42.160Z,10.70
2024-01-15T14:47:10.084Z,12.30
2024-01-15T14:49:38.023Z,7.90
2024-01-15T14:52:06.191Z,2.80
2024-01-15T14:54:34.098Z,3.70
2024-01-15T14:57:02.504Z,6.40
2024-01-15T14:59:30.897Z,4.77
2024-01-15T15:01:58.708Z,3.93
2024-01-15T15:04:26.478Z,11.07
2024-01-15T15:06:54.543Z,10.80
2024-01-15T15:09:22.340Z,4.93
2024-01-15T15:11:50.082Z,3.13
2024-01-15T15:14:18.006Z,4.83
2024-01-15T15:16:47.605Z,4.90
2024-01-15T15:19:15.548Z,3.47
2024-01-15T15:21:43.431Z,5.20
2024-01-15T15:24:11.220Z,9.80
2024-01-15T15:26:38.991Z,6.13
2024-01-15T15:29:06.798Z,2.93
2024-01-15T15:31:34.526Z,4.13
2024-01-15T15:34:02.678Z,3.77
2024-01-15T15:36:30.643Z,4.00
2024-01-15T15:38:59.748Z,5.63
2024-01-15T15:41:29.113Z,5.20
2024-01-15T15:43:57.125Z,10.70
2024-01-15T15:46:24.918Z,61.13
2024-01-15T15:48:52.734Z,30.47
2024-01-15T15:51:20.563Z,52.23
2024-01-15T15:53:48.437Z,47.93
2024-01-15T15:56:16.210Z,36.43
2024-01-15T15:58:44.027Z,62.00
2024-01-15T16:01:11.826Z,47.17
2024-01-15T16:03:39.720Z,119.20
2024-01-15T16:06:07.790Z,83.23
2024-01-15T16:08:35.600Z,49.43
2024-01-15T16:11:03.491Z,84.10
2024-01-15T16:13:31.345Z,113.30
2024-01-15T16:23:08.973Z,93.63
2024-01-15T16:23:22.214Z,40.90
2024-01-15T16:23:37.170Z,22.30
2024-01-15T16:24:33.773Z,43.80
2024-01-15T16:29:41.854Z,20.30
2024-01-15T16:32:09.734Z,23.17
2024-01-15T16:34:38.818Z,13.97
2024-01-15T16:37:07.649Z,15.03
2024-01-15T16:39:35.954Z,28.60
2024-01-15T16:42:03.918Z,43.23
2024-01-15T16:44:31.828Z,32.30
2024-01-15T16:47:05.013Z,21.37
2024-01-15T16:49:34.999Z,9.13
2024-01-15T16:52:06.677Z,23.13
2024-01-15T16:54:36.400Z,13.30
2024-01-15T16:57:04.492Z,19.33
2024-01-15T16:59:32.411Z,37.20
2024-01-15T17:02:00.297Z,20.87
2024-01-15T17:04:28.185Z,25.23
2024-01-15T17:06:55.917Z,10.43
2024-01-15T17:09:23.685Z,15.47
2024-01-15T17:11:51.385Z,6.03
2024-01-15T17:14:19.311Z,25.60
2024-01-15T17:16:47.683Z,17.87
2024-01-15T17:19:15.666Z,16.37
2024-01-15T17:21:43.626Z,51.40
2024-01-15T17:24:11.446Z,17.33
2024-01-15T17:26:39.344Z,9.90
2024-01-15T17:29:07.205Z,13.83
2024-01-15T17:31:35.073Z,8.47
2024-01-15T17:34:02.960Z,9.97
2024-01-15T17:36:31.345Z,9.90
2024-01-15T17:38:59.095Z,6.40
2024-01-15T17:41:26.828Z,6.47
2024-01-15T17:43:54.692Z,7.00
2024-01-15T17:46:22.435Z,6.80
2024-01-15T17:48:50.313Z,6.83
2024-01-15T17:51:19.421Z,11.27
2024-01-15T17:53:48.048Z,5.80
2024-01-15T17:56:16.637Z,5.90
2024-01-15T17:58:44.730Z,9.63
2024-01-15T18:01:12.583Z,8.33
2024-01-15T18:03:40.772Z,12.57
2024-01-15T18:06:08.627Z,7.47
2024-01-15T18:08:36.558Z,14.50
2024-01-15T18:11:05.827Z,9.47
2024-01-15T18:13:33.625Z,7.20
2024-01-15T18:16:01.415Z,3.63
2024-01-15T18:18:29.350Z,12.37
2024-01-15T18:20:57.271Z,4.90
2024-01-15T18:23:25.519Z,2.90
2024-01-15T18:25:53.306Z,4.43
2024-01-15T18:28:22.014Z,2.80
2024-01-15T18:30:50.498Z,3.17
2024-01-15T18:33:18.802Z,1.13
2024-01-15T18:35:47.095Z,1.37
2024-01-15T18:38:15.028Z,1.53
2024-01-15T18:40:43.239Z,2.70
2024-01-15T18:43:11.093Z,1.20
2024-01-15T18:45:39.039Z,1.10
2024-01-15T18:48:07.736Z,3.83
2024-01-15T18:50:35.606Z,5.47
2024-01-15T18:53:04.298Z,4.47
2024-01-15T18:55:32.470Z,4.63
2024-01-15T18:58:01.010Z,3.40
2024-01-15T19:00:28.972Z,2.67
2024-01-15T19:02:59.294Z,4.97
2024-01-15T19:05:27.352Z,4.20
2024-01-15T19:07:55.225Z,2.33
2024-01-15T19:10:23.077Z,4.47
2024-01-15T19:12:50.867Z,2.07
2024-01-15T19:15:21.082Z,3.90
2024-01-15T19:17:50.104Z,1.70
2024-01-15T19:20:18.498Z,2.80
2024-01-15T19:22:48.026Z,2.57
2024-01-15T19:25:15.908Z,3.87
2024-01-15T19:27:45.709Z,6.47
2024-01-15T19:30:17.704Z,4.57
2024-01-15T19:32:46.055Z,2.43
2024-01-15T19:35:13.971Z,5.80
2024-01-15T19:37:41.813Z,5.23
2024-01-15T19:40:09.811Z,6.50
2024-01-15T19:42:38.215Z,3.93
2024-01-15T19:45:06.580Z,4.57
2024-01-15T19:47:34.509Z,3.60
2024-01-15T19:50:02.708Z,4.17
2024-01-15T19:52:30.767Z,6.20
2024-01-15T19:54:58.623Z,4.93
2024-01-15T19:57:26.406Z,4.77
2024-01-15T19:59:55.538Z,6.47
2024-01-15T20:02:23.331Z,5.67
2024-01-15T20:04:51.268Z,7.20
2024-01-15T20:07:19.006Z,6.10
2024-01-15T20:09:46.858Z,3.50
2024-01-15T20:12:14.649Z,4.73
2024-01-15T20:14:42.450Z,10.33
2024-01-15T20:17:10.245Z,9.87
2024-01-15T20:19:38.233Z,5.97
2024-01-15T20:22:06.028Z,5.73
2024-01-15T20:24:33.785Z,8.07
2024-01-15T20:27:01.674Z,10.17
2024-01-15T20:29:29.555Z,9.37
2024-01-15T20:31:57.687Z,5.17
2024-01-15T20:34:25.683Z,8.53
2024-01-15T20:36:53.599Z,6.33
2024-01-15T20:39:21.660Z,3.33
2024-01-15T20:41:50.409Z,3.57
2024-01-15T20:44:19.882Z,4.00
2024-01-15T20:46:48.597Z,4.80
2024-01-15T20:49:16.530Z,3.60
2024-01-15T20:51:44.337Z,9.73
2024-01-15T20:54:12.164Z,2.87
2024-01-15T20:56:43.386Z,3.70
2024-01-15T20:59:14.946Z,9.40
2024-01-15T21:01:42.774Z,4.37
2024-01-15T21:04:12.965Z,6.90
2024-01-15T21:06:41.007Z,7.13
2024-01-15T21:09:08.853Z,2.93
2024-01-15T21:11:36.651Z,9.13
2024-01-15T21:14:04.530Z,8.03
2024-01-15T21:16:32.262Z,6.53
2024-01-15T21:19:02.233Z,9.90
2024-01-15T21:21:30.178Z,4.40
2024-01-15T21:23:57.960Z,4.50
2024-01-15T21:26:25.831Z,5.93
2024-01-15T21:28:53.713Z,4.60
2024-01-15T21:31:21.498Z,3.37
2024-01-15T21:33:50.517Z,4.77
2024-01-15T21:36:18.389Z,7.60
2024-01-15T21:38:46.254Z,4.63
2024-01-15T21:41:14.262Z,4.53
2024-01-15T21:43:42.323Z,5.27
2024-01-15T21:46:10.125Z,3.37
2024-01-15T21:48:41.277Z,3.00
2024-01-15T21:51:11.254Z,2.40
2024-01-15T21:53:39.086Z,2.87
2024-01-15T21:56:07.031Z,1.97
2024-01-15T21:58:34.851Z,3.53
2024-01-15T22:01:02.947Z,2.27
2024-01-15T22:03:30.755Z,3.57
2024-01-15T22:05:58.606Z,1.83
2024-01-15T22:08:26.464Z,3.03
2024-01-15T22:10:54.285Z,2.40
2024-01-15T22:13:22.058Z,2.67
2024-01-15T22:15:49.842Z,4.70
2024-01-15T22:18:17.775Z,1.60
2024-01-15T22:20:45.755Z,3.13
2024-01-15T22:23:13.560Z,4.60
2024-01-15T22:25:41.452Z,2.30
2024-01-15T22:28:09.193Z,2.57
2024-01-15T22:30:37.036Z,3.10
2024-01-15T22:33:05.160Z,4.73
2024-01-15T22:35:33.392Z,9.13
2024-01-15T22:38:02.504Z,2.53
2024-01-15T22:40:30.474Z,1.73
2024-01-15T22:42:58.412Z,1.77
2024-01-15T22:45:26.252Z,1.40
2024-01-15T22:47:54.210Z,1.63
2024-01-15T22:50:22.236Z,2.27
2024-01-15T22:52:50.008Z,1.40
2024-01-15T22:55:17.787Z,1.93
2024-01-15T22:57:45.604Z,1.40
2024-01-15T23:00:19.778Z,1.43
2024-01-15T23:02:48.433Z,5.03
2024-01-15T23:05:17.223Z,0.70
2024-01-15T23:07:45.266Z,2.30
2024-01-15T23:10:15.170Z,1.67
2024-01-15T23:12:43.054Z,5.97
2024-01-15T23:15:10.811Z,1.50
2024-01-15T23:17:39.157Z,1.50
2024-01-15T23:20:08.620Z,2.20
2024-01-15T23:22:36.402Z,1.70
2024-01-15T23:25:04.494Z,3.73
2024-01-15T23:27:32.236Z,1.90
2024-01-15T23:29:59.973Z,1.33
2024-01-15T23:32:27.810Z,1.87
2024-01-15T23:34:55.598Z,3.80
2024-01-15T23:37:23.692Z,1.40
2024-01-15T23:39:54.433Z,2.40
2024-01-15T23:42:22.956Z,1.40
2024-01-15T23:44:50.870Z,2.13
2024-01-15T23:47:18.715Z,2.47
2024-01-15T23:49:46.553Z,2.03
2024-01-15T23:52:14.389Z,1.70
2024-01-15T23:54:42.207Z,1.30
2024-01-15T23:57:10.018Z,1.37
2024-01-15T23:59:39.179Z,1.50
